メインページ
METAR-TAF:

METAR-TAF

空港 :

テュルクメナバート, トルクメニスタン

緯度: 39-05-00N, 経度: 063-36-48E, 海抜: 192m

現時点の気象観測

当レポートは1時間14分前の17:00(UTC)に作成
北西の風 6kt
気温 4°C
湿度 56%
気圧 1031 hPa
視程10km以上
1,500メートル以下は雲なし、積乱雲なし

METAR: UTAV 171700Z 31006KT CAVOK 04/M04 Q1031 NOSIG

時間: 23:14 (18:14 UTC)

予報

当レポートは1時間44分前の16:30(UTC)に作成
予報は17日の 18時(UTC)から 18日の 18時(UTC)まで有効
北西の風 14kt
視程: 6000m
17日の 18時(UTC)から 17日の 24時(UTC)まで一時的に
変向風 4kt

TAF: UTAV 171630Z 1718/1818 32014KT 6000 NSC TN00/1721Z TEMPO 1718/1724 VRB04KT

4,000以上の空港の気象観測と天気予報(METAR報とTAF報)

利用可能な観測所は地図上に黄色い丸と赤い丸で示す。

丸の上にカーソルを重ねると観測所名を参照できる。

次にクリックすると気象観測と天気予報を参照できる。

マップの切り替え:黒色「×」印の緑ボタンをクリックして拡大、「-」印の緑ボタンをクリックして縮小、緑色の三角印をクリックして隣りの地図に切り替え


METAR-TAF: